Flight Track Log - Related Links

Times and Time Zones

All times are in EST time to prevent confusion due to time zone crossing. See the N1926A flight status page for this flight to view local times or setup timezone preferences in your user account.


Time Position Orientation Groundspeed Altitude Reporting Facility
EST Latitude Longitude Course Direction KTS MPH feet Rate Location/Type
Thu 04:52:12 PM 37.1778 -93.4333 128° Southeast 158 182 5,300  Level Memphis Center
Thu 04:53:14 PM 37.1358 -93.4506 198° South 157 181 7,500 1,984 Climbing Memphis Center
Thu 04:54:16 PM 37.0944 -93.4108 143° Southeast 183 211 9,400 2,067 Climbing Memphis Center
Thu 04:55:13 PM 37.0675 -93.3419 116° Southeast 207 238 11,600 2,100 Climbing Kansas City Center
Thu 04:56:00 PM 36.9534 -92.9330 127° Southeast  Level Estimated
Thu 04:56:16 PM 37.0331 -93.2708 121° Southeast 224 258 13,600  Level Kansas City Center
Thu 04:57:00 PM 36.9045 -92.8574 128° Southeast  Level Estimated
Thu 04:57:17 PM 36.9944 -93.2069 127° Southeast 230 265 15,700  Level Kansas City Center
Thu 04:58:18 PM 36.9578 -93.1417 125° Southeast 229 264 17,600 1,935 Climbing Kansas City Center
Thu 04:59:21 PM 36.9108 -93.0636 127° Southeast 232 267 19,700 1,742 Climbing Kansas City Center
Thu 05:00:22 PM 36.8686 -93.0031 131° Southeast 232 267 21,200 1,440 Climbing Kansas City Center
Thu 05:01:26 PM 36.8228 -92.9436 134° Southeast 235 270 22,700 1,258 Climbing Kansas City Center
Thu 05:02:26 PM 36.7764 -92.8856 135° Southeast 236 272 23,800 968 Climbing Kansas City Center
Thu 05:03:30 PM 36.7269 -92.8264 136° Southeast 241 277 24,700 576 Climbing Kansas City Center
Thu 05:04:31 PM 36.6733 -92.7569 134° Southeast 262 302 25,000 144 Climbing Kansas City Center
Thu 05:05:35 PM 36.6064 -92.6525 129° Southeast 306 352 25,000  Level Kansas City Center
Thu 05:06:40 PM 36.5511 -92.5614 127° Southeast 323 372 25,000  Level Memphis Center
Thu 05:07:42 PM 36.4944 -92.4678 127° Southeast 333 383 25,000  Level Memphis Center
Thu 05:08:44 PM 36.4325 -92.3644 127° Southeast 337 388 25,000  Level Memphis Center
Thu 05:09:47 PM 36.3758 -92.2711 127° Southeast 339 390 25,000  Level Memphis Center
Thu 05:10:49 PM 36.3189 -92.1822 128° Southeast 334 384 25,000  Level Memphis Center
Thu 05:11:51 PM 36.2592 -92.0947 130° Southeast 333 383 25,000  Level Memphis Center
Thu 05:12:53 PM 36.1950 -92.0011 130° Southeast 335 386 25,000  Level Memphis Center
Thu 05:13:55 PM 36.1225 -91.8956 130° Southeast 336 387 25,000  Level Memphis Center
Thu 05:14:57 PM 36.0661 -91.8094 129° Southeast 328 377 25,000  Level Memphis Center
Thu 05:15:59 PM 36.0089 -91.7197 128° Southeast 330 380 25,000  Level Memphis Center
Thu 05:17:01 PM 35.9511 -91.6264 127° Southeast 329 379 25,000  Level Memphis Center
Thu 05:18:03 PM 35.9006 -91.5456 128° Southeast 328 377 25,000  Level Memphis Center
Thu 05:19:05 PM 35.8336 -91.4378 127° Southeast 329 379 25,000  Level Memphis Center
Thu 05:20:07 PM 35.7781 -91.3444 126° Southeast 326 375 25,000  Level Memphis Center
Thu 05:21:09 PM 35.7217 -91.2575 129° Southeast 324 373 25,000  Level Memphis Center
Thu 05:22:11 PM 35.6586 -91.1656 130° Southeast 328 377 25,000  Level Memphis Center
Thu 05:23:13 PM 35.6011 -91.0806 130° Southeast 322 371 25,000  Level Memphis Center
Thu 05:24:15 PM 35.5453 -90.9942 128° Southeast 320 368 25,000  Level Memphis Center
Thu 05:25:17 PM 35.4881 -90.9103 130° Southeast 319 367 25,000  Level Memphis Center
Thu 05:26:19 PM 35.4300 -90.8256 130° Southeast 320 368 25,000  Level Memphis Center
Thu 05:27:21 PM 35.3725 -90.7403 130° Southeast 321 369 25,000  Level Memphis Center
Thu 05:28:24 PM 35.3139 -90.6553 130° Southeast 324 373 25,000  Level Memphis Center
Thu 05:29:26 PM 35.2450 -90.5553 130° Southeast 325 374 25,000  Level Memphis Center
Thu 05:30:28 PM 35.1853 -90.4703 131° Southeast 327 376 25,000  Level Memphis Center
Thu 05:31:30 PM 35.1258 -90.3856 131° Southeast 326 375 25,000  Level Memphis Center
Thu 05:32:32 PM 35.0667 -90.3008 130° Southeast 326 375 25,000  Level Memphis Center
Thu 05:33:34 PM 35.0083 -90.2183 131° Southeast 321 369 25,000  Level Memphis Center
Thu 05:34:36 PM 34.9547 -90.1269 126° Southeast 326 375 25,000  Level Memphis Center
Thu 05:35:38 PM 34.9050 -90.0344 123° Southeast 325 374 25,000  Level Memphis Center
Thu 05:36:40 PM 34.8428 -89.9306 126° Southeast 325 374 25,000  Level Memphis Center
Thu 05:37:42 PM 34.7872 -89.8464 129° Southeast 323 372 25,000  Level Memphis Center
Thu 05:38:44 PM 34.7314 -89.7644 130° Southeast 320 368 25,000  Level Memphis Center
Thu 05:39:46 PM 34.6711 -89.6856 133° Southeast 318 366 25,000  Level Memphis Center
Thu 05:40:48 PM 34.6078 -89.6097 135° Southeast 317 365 25,000  Level Memphis Center
Thu 05:41:50 PM 34.5353 -89.5214 135° Southeast 315 362 25,000  Level Memphis Center
Thu 05:42:52 PM 34.4736 -89.4439 134° Southeast 316 364 25,000  Level Memphis Center
Thu 05:43:54 PM 34.4144 -89.3650 132° Southeast 314 361 25,000  Level Memphis Center
Thu 05:44:57 PM 34.3575 -89.2814 130° Southeast 318 366 25,000  Level Memphis Center
Thu 05:45:59 PM 34.3025 -89.1983 129° Southeast 315 362 25,000  Level Memphis Center
Thu 05:47:01 PM 34.2492 -89.1100 126° Southeast 319 367 25,000  Level Memphis Center
Thu 05:48:03 PM 34.1972 -89.0253 127° Southeast 314 361 25,000  Level Memphis Center
Thu 05:49:05 PM 34.1356 -88.9247 127° Southeast 314 361 25,000  Level Memphis Center
Thu 05:50:07 PM 34.0836 -88.8414 127° Southeast 311 358 25,000  Level Memphis Center
Thu 05:51:09 PM 34.0367 -88.7672 127° Southeast 312 359 25,000  Level Memphis Center
Thu 05:52:11 PM 33.9669 -88.6742 132° Southeast 313 360 25,000  Level Memphis Center
Thu 05:53:13 PM 33.9072 -88.5992 134° Southeast 312 359 25,000  Level Memphis Center
Thu 05:54:15 PM 33.8475 -88.5242 134° Southeast 312 359 25,000  Level Memphis Center
Thu 05:55:17 PM 33.7872 -88.4497 134° Southeast 312 359 25,000  Level Memphis Center
Thu 05:56:19 PM 33.7306 -88.3722 131° Southeast 312 359 25,000  Level Memphis Center
Thu 05:57:21 PM 33.6633 -88.2789 131° Southeast 310 357 25,000  Level Memphis Center
Thu 05:58:23 PM 33.6081 -88.2006 130° Southeast 309 356 25,000  Level Memphis Center
Thu 05:59:25 PM 33.5522 -88.1203 130° Southeast 312 359 25,000  Level Memphis Center
Thu 06:00:28 PM 33.4972 -88.0408 130° Southeast 312 359 25,000  Level Memphis Center
Thu 06:01:30 PM 33.4417 -87.9611 130° Southeast 312 359 25,000  Level Memphis Center
Thu 06:02:32 PM 33.3867 -87.8822 130° Southeast 312 359 25,000 -194 Level Memphis Center
Thu 06:03:34 PM 33.3197 -87.7881 130° Southeast 311 358 24,600 -484 Descending Memphis Center
Thu 06:04:36 PM 33.2606 -87.7058 131° Southeast 321 369 24,000 -290 Descending Memphis Center
Thu 06:05:38 PM 33.2017 -87.6247 131° Southeast 324 373 24,000  Level Memphis Center
Thu 06:06:29 PM 33.1553 -87.5572 129° Southeast 316 364 24,000 -541 Level Atlanta Center
Thu 06:07:29 PM 33.0950 -87.4778 132° Southeast 316 364 23,000 -1,150 Descending Atlanta Center
Thu 06:08:29 PM 33.0347 -87.3936 130° Southeast 321 369 21,700 -1,700 Descending Atlanta Center
Thu 06:09:29 PM 32.9783 -87.3147 130° Southeast 321 369 19,600 -2,050 Descending Atlanta Center
Thu 06:10:29 PM 32.9203 -87.2286 129° Southeast 321 369 17,600 -1,950 Descending Atlanta Center
Thu 06:11:29 PM 32.8639 -87.1450 129° Southeast 321 369 15,700 -1,850 Descending Atlanta Center
Thu 06:12:29 PM 32.8075 -87.0589 128° Southeast 321 369 13,900 -1,700 Descending Atlanta Center
Thu 06:13:29 PM 32.7511 -86.9781 130° Southeast 321 369 12,300 -1,950 Descending Atlanta Center
Thu 06:14:29 PM 32.6925 -86.8994 132° Southeast 316 364 10,000 -2,200 Descending Atlanta Center
Thu 06:15:29 PM 32.6314 -86.8308 137° Southeast 310 357 7,900 -2,100 Descending Atlanta Center
Thu 06:16:29 PM 32.5722 -86.7722 140° Southeast 292 336 5,800 -1,450 Descending Atlanta Center
Thu 06:17:29 PM 32.5169 -86.7164 140° Southeast 276 318 5,000 -500 Descending Atlanta Center
Thu 06:18:29 PM 32.4681 -86.6681 140° Southeast 250 288 4,800 -750 Descending Atlanta Center
Thu 06:19:29 PM 32.4147 -86.6175 141° Southeast 243 280 3,500 -900 Descending Atlanta Center
Thu 06:20:29 PM 32.3656 -86.5717 142° Southeast 238 274 3,000 -300 Descending Atlanta Center
Thu 06:21:29 PM 32.3225 -86.5311 141° Southeast 226 260 2,900 -100 Descending Atlanta Center
Thu 06:23:00 PM 32.3006 -86.3940 121° Southeast  Level Estimated
Thu 06:30:00 PM 32.3006 -86.3940 121° Southeast  Level Estimated
Thu 06:31:00 PM 32.3006 -86.3940 121° Southeast  Level Estimated
Thu 06:32:00 PM 32.3006 -86.3940 121° Southeast  Level Estimated

Login

Don't have an account? Register now (free) for customized features, flight alerts, and more!